The Tussle


Presented by:

Cape Multisport Club


Results

9 June 2020

Royal Pump Room 8 (Banner to Banner) (Zwift Insider verified)

Date ID Surname Name Distance Time Ave Speed Ave Cadence Ave Watts
2020-06-09 18:31:26 12764681 DE WET JOHANN 28 00:45:54 36.2 87 289
2020-06-09 18:35:30 12912170 VENTER ETIENNE 28 00:54:57 30.2 69 243
2020-06-09 18:35:33 2749564 JOUBERT JACQUES 28 00:55:00 30.2 78 238
2020-06-09 18:35:31 11600001 LE ROUX JULIA 28 00:56:12 29.5 78 161

Yorkshire Sprint Reverse (Zwift Insider verified)

Date ID Surname Name Distance Time Ave Speed Ave Cadence Ave Watts
2020-06-09 18:35:08 12764681 DE WET JOHANN 0 00:00:32 44.3 108 593
2020-06-09 18:39:32 2749564 JOUBERT JACQUES 0 00:00:45 31.5 101 339
2020-06-09 18:39:24 12912170 VENTER ETIENNE 0 00:00:49 28.9 78 317
2020-06-09 18:39:45 11600001 LE ROUX JULIA 0 00:00:56 25.3 82 185

Yorkshire KOM (Zwift Insider verified)

Date ID Surname Name Distance Time Ave Speed Ave Cadence Ave Watts
2020-06-09 18:51:14 12764681 DE WET JOHANN 1 00:02:34 28.2 93 438
2020-06-09 18:58:44 2749564 JOUBERT JACQUES 1 00:04:04 17.8 82 267
2020-06-09 18:58:43 11600001 LE ROUX JULIA 1 00:04:05 17.7 75 187
2020-06-09 18:56:59 12912170 VENTER ETIENNE 1 00:04:14 17.1 61 265

Zwift Harrogate Sprint

Date ID Surname Name Distance Time Ave Speed Ave Cadence Ave Watts
2020-06-09 18:56:36 12764681 DE WET JOHANN 0 00:00:29 44.8 104 530
2020-06-09 19:05:54 2749564 JOUBERT JACQUES 0 00:00:31 41.9 121 481
2020-06-09 19:05:51 11600001 LE ROUX JULIA 0 00:00:39 33.3 84 180
2020-06-09 19:04:17 12912170 VENTER ETIENNE 0 00:00:40 32.5 71 281

Yorkshire KOM Reverse (Zwift Insider verified)

Date ID Surname Name Distance Time Ave Speed Ave Cadence Ave Watts
2020-06-09 19:00:01 12764681 DE WET JOHANN 1 00:02:39 26.3 88 369
2020-06-09 19:09:47 2749564 JOUBERT JACQUES 1 00:03:51 18.1 78 243
2020-06-09 19:09:39 11600001 LE ROUX JULIA 1 00:03:55 17.8 71 172
2020-06-09 19:08:06 12912170 VENTER ETIENNE 1 00:03:57 17.7 61 248

Results

2 June 2020

2015 UCI Worlds Course (Zwift Insider verified)

Date ID Surname Name Distance Time Ave Speed Ave Cadence Ave Watts
2020-06-02 18:36:55 38436113 MENEZES ADF 16 00:22:38 43 0 322
2020-06-02 18:36:55 3444681 JANKIELSOHN ROBERT 16 00:22:46 42.8 84 295
2020-06-02 18:36:55 16744178 DU PREEZ JACO 16 00:23:17 41.8 76 314
2020-06-02 18:37:12 14577174 LE ROUX SP 16 00:23:20 41.7 87 341
2020-06-02 18:36:55 12764681 DE WET JOHANN 16 00:23:23 41.6 93 335
2020-06-02 18:36:39 2112084 JORDAAN NICHOL 16 00:23:27 41.5 0 327
2020-06-02 18:36:53 35290792 SUTER ANTHONY 16 00:23:39 41.2 80 335
2020-06-02 18:36:54 12201984 BRESCIANINO ROGER 16 00:25:17 38.5 0 265
2020-06-02 18:36:38 7337749 BULLARD GRANT 16 00:25:24 38.3 80 285
2020-06-02 18:36:56 1130469 WALKER BRETT 16 00:25:28 38.2 90 245
2020-06-02 18:36:53 24111091 MIDGLEY INA 16 00:26:25 36.9 92 223
2020-06-02 18:36:53 12912170 VENTER ETIENNE 16 00:28:26 34.2 79 274
2020-06-02 18:36:56 11600001 LE ROUX JULIA 16 00:29:43 32.8 81 178
2020-06-02 18:36:58 17731263 GELDENHUYS HENRY 16 00:30:31 31.9 64 225

Monument Ave Sprint (Zwift Insider verified)

Date ID Surname Name Distance Time Ave Speed Ave Cadence Ave Watts
2020-06-02 18:42:10 38436113 MENEZES ADF 0 00:00:14 57.3 0 795
2020-06-02 18:42:10 12764681 DE WET JOHANN 0 00:00:15 53.5 93 757
2020-06-02 18:42:26 14577174 LE ROUX SP 0 00:00:15 53.5 87 766
2020-06-02 18:42:09 7337749 BULLARD GRANT 0 00:00:15 53.5 106 710
2020-06-02 18:42:09 24111091 MIDGLEY INA 0 00:00:16 50.2 97 431
2020-06-02 18:42:11 2112084 JORDAAN NICHOL 0 00:00:16 50.2 0 412
2020-06-02 18:36:24 2749564 JOUBERT JACQUES 0 00:00:16 50.2 117 474
2020-06-02 18:42:09 16744178 DU PREEZ JACO 0 00:00:16 50.2 77 439
2020-06-02 18:42:11 3444681 JANKIELSOHN ROBERT 0 00:00:17 47.2 93 328
2020-06-02 18:42:08 35290792 SUTER ANTHONY 0 00:00:17 47.2 82 565
2020-06-02 18:42:11 1130469 WALKER BRETT 0 00:00:17 47.2 96 275
2020-06-02 18:42:08 12201984 BRESCIANINO ROGER 0 00:00:18 44.6 0 285
2020-06-02 18:43:04 12912170 VENTER ETIENNE 0 00:00:20 40.1 88 356
2020-06-02 18:43:34 11600001 LE ROUX JULIA 0 00:00:21 38.2 87 208
2020-06-02 18:43:34 17731263 GELDENHUYS HENRY 0 00:00:22 36.5 65 222
2020-06-02 19:14:42 17731263 GELDENHUYS HENRY 0 00:00:25 32.1 70 176
2020-06-02 19:09:28 3444681 JANKIELSOHN ROBERT 0 00:00:32 25.1 73 74

Broad St Sprint (Zwift Insider verified)

Date ID Surname Name Distance Time Ave Speed Ave Cadence Ave Watts
2020-06-02 18:46:37 38436113 MENEZES ADF 0 00:00:18 56.6 0 797
2020-06-02 18:46:36 12764681 DE WET JOHANN 0 00:00:20 50.9 107 654
2020-06-02 18:46:53 14577174 LE ROUX SP 0 00:00:20 50.9 104 634
2020-06-02 18:40:51 2749564 JOUBERT JACQUES 0 00:00:20 50.9 127 545
2020-06-02 18:46:36 24111091 MIDGLEY INA 0 00:00:21 48.5 97 395
2020-06-02 18:46:38 2112084 JORDAAN NICHOL 0 00:00:21 48.5 0 425
2020-06-02 18:46:35 16744178 DU PREEZ JACO 0 00:00:22 46.3 73 373
2020-06-02 18:46:38 3444681 JANKIELSOHN ROBERT 0 00:00:22 46.3 82 350
2020-06-02 18:46:35 35290792 SUTER ANTHONY 0 00:00:22 46.3 86 322
2020-06-02 18:47:03 12201984 BRESCIANINO ROGER 0 00:00:25 40.8 0 263
2020-06-02 18:47:04 7337749 BULLARD GRANT 0 00:00:25 40.8 84 273
2020-06-02 18:48:21 12912170 VENTER ETIENNE 0 00:00:26 39.2 84 345
2020-06-02 18:47:05 1130469 WALKER BRETT 0 00:00:26 39.2 86 247
2020-06-02 18:49:07 11600001 LE ROUX JULIA 0 00:00:28 36.4 87 212
2020-06-02 18:49:07 17731263 GELDENHUYS HENRY 0 00:00:28 36.4 66 234
2020-06-02 19:20:40 17731263 GELDENHUYS HENRY 0 00:00:33 30.9 68 170

Libby Hill KOM (Zwift Insider verified)

Date ID Surname Name Distance Time Ave Speed Ave Cadence Ave Watts
2020-06-02 18:52:38 3444681 JANKIELSOHN ROBERT 1 00:01:23 27.5 87 421
2020-06-02 18:52:38 38436113 MENEZES ADF 1 00:01:25 26.8 0 411
2020-06-02 18:52:38 2112084 JORDAAN NICHOL 1 00:01:26 26.5 0 425
2020-06-02 18:52:34 16744178 DU PREEZ JACO 1 00:01:33 24.5 70 380
2020-06-02 18:52:37 12764681 DE WET JOHANN 1 00:01:38 23.3 98 382
2020-06-02 18:53:47 7337749 BULLARD GRANT 1 00:01:42 22.3 66 364
2020-06-02 18:52:54 14577174 LE ROUX SP 1 00:01:42 22.3 82 359
2020-06-02 18:52:34 35290792 SUTER ANTHONY 1 00:01:43 22.1 61 386
2020-06-02 18:46:51 2749564 JOUBERT JACQUES 1 00:01:48 21.1 103 366
2020-06-02 18:53:47 12201984 BRESCIANINO ROGER 1 00:01:48 21.1 0 340
2020-06-02 18:53:49 1130469 WALKER BRETT 1 00:01:49 20.9 82 294
2020-06-02 18:53:42 24111091 MIDGLEY INA 1 00:02:02 18.7 89 248
2020-06-02 18:56:30 11600001 LE ROUX JULIA 1 00:02:24 15.8 72 197
2020-06-02 18:55:29 12912170 VENTER ETIENNE 1 00:02:29 15.3 71 279
2020-06-02 18:56:30 17731263 GELDENHUYS HENRY 1 00:02:38 14.4 58 257

23rd St KOM (Zwift Insider verified)

Date ID Surname Name Distance Time Ave Speed Ave Cadence Ave Watts
2020-06-02 18:55:10 38436113 MENEZES ADF 0 00:00:30 32.3 0 569
2020-06-02 18:55:30 12764681 DE WET JOHANN 0 00:00:33 29.3 88 609
2020-06-02 18:55:10 3444681 JANKIELSOHN ROBERT 0 00:00:35 27.7 81 479
2020-06-02 18:56:50 12201984 BRESCIANINO ROGER 0 00:00:36 26.9 0 485
2020-06-02 18:55:29 35290792 SUTER ANTHONY 0 00:00:39 24.8 66 502
2020-06-02 18:56:48 7337749 BULLARD GRANT 0 00:00:41 23.6 68 469
2020-06-02 18:56:53 1130469 WALKER BRETT 0 00:00:42 23.1 80 364
2020-06-02 18:55:49 14577174 LE ROUX SP 0 00:00:46 21.1 77 375
2020-06-02 18:55:11 2112084 JORDAAN NICHOL 0 00:00:46 21.1 0 378
2020-06-02 18:55:18 16744178 DU PREEZ JACO 0 00:00:48 20.2 64 357
2020-06-02 18:49:51 2749564 JOUBERT JACQUES 0 00:00:51 19 105 372
2020-06-02 18:57:08 24111091 MIDGLEY INA 0 00:00:57 17 69 269
2020-06-02 18:59:15 12912170 VENTER ETIENNE 0 00:00:59 16.4 63 336
2020-06-02 19:00:18 11600001 LE ROUX JULIA 0 00:01:02 15.6 60 230
2020-06-02 19:00:28 17731263 GELDENHUYS HENRY 0 00:01:26 11.3 63 211